CYYZ/YYZ METAR and TAF weather

Enter ICAO airport designator
Station Type Date Time Source
CYYZ METAR 2019/06/25 06:00 UTC NOAA

CYYZ 250600Z 16010KT 5SM -SHRA BR FEW014 SCT028 OVC040 17/17 A2964 RMK CF2SC2SC4 CVCTV CLD EMBD /R16/ SLP038 DENSITY ALT 1300FT


Station Type Date Time Source
CYYZ Decoded METAR 2019/06/25 06:00 UTC NOAA

Toronto Pearson Int'L. Ont., Canada (CYYZ) 43-40N 079-38W 173M
Jun 25, 2019 - 02:00 AM EDT / 2019.06.25 0600 UTC
Wind: from the SSE (160 degrees) at 12 MPH (10 KT):0
Visibility: 5 mile(s):0
Sky conditions: overcast
Weather: light rain showers; mist
Temperature: 62 F (17 C)
Dew Point: 62 F (17 C)
Relative Humidity: 100%
Pressure (altimeter): 29.64 in. Hg (1003 hPa)
ob: CYYZ 250600Z 16010KT 5SM -SHRA BR FEW014 SCT028 OVC040 17/17 A2964 RMK CF2SC2SC4 CVCTV CLD EMBD /R16/ SLP038 DENSITY ALT 1300FT
cycle: 6

Station Type Date Time Source
CYYZ TAF 2019/06/25 06:42 UTC NOAA

TAF CYYZ 250538Z 2506/2612 17010KT P6SM SCT012 OVC030
TEMPO 2506/2507 21/2SM SHRA BR BKN012 OVC030
FM250700 22008KT P6SM SCT030 BKN050
TEMPO 2507/2509 BKN020 BKN050
FM250900 24008KT P6SM BKN012
TEMPO 2509/2512 SCT012 BKN030
FM251200 25012KT P6SM BKN015
BECMG 2512/2514 25012G22KT
FM251600 26015G25KT P6SM BKN030
FM252100 27012G22KT P6SM SCT040
FM260100 23010KT P6SM FEW040
FM260600 25010KT P6SM BKN040
RMK NXT FCST BY 250900Z

Example: see airport list